sensor_id;sensor_type;location;lat;lon;timestamp;P1;durP1;ratioP1;P2;durP2;ratioP2
22230;SDS011;11284;48.086;-1.652;2023-09-19T00:00:30;6.60;;;1.00;;
22230;SDS011;11284;48.086;-1.652;2023-09-19T00:02:57;7.32;;;1.50;;
22230;SDS011;11284;48.086;-1.652;2023-09-19T00:05:26;8.05;;;1.60;;
22230;SDS011;11284;48.086;-1.652;2023-09-19T00:07:53;4.95;;;1.25;;
22230;SDS011;11284;48.086;-1.652;2023-09-19T00:10:22;7.50;;;1.70;;
22230;SDS011;11284;48.086;-1.652;2023-09-19T00:12:49;5.72;;;1.30;;
22230;SDS011;11284;48.086;-1.652;2023-09-19T00:15:16;6.82;;;1.30;;
22230;SDS011;11284;48.086;-1.652;2023-09-19T00:17:44;5.97;;;1.48;;
22230;SDS011;11284;48.086;-1.652;2023-09-19T00:20:10;7.00;;;1.17;;
22230;SDS011;11284;48.086;-1.652;2023-09-19T00:22:41;4.90;;;1.55;;
22230;SDS011;11284;48.086;-1.652;2023-09-19T00:25:10;4.85;;;1.63;;
22230;SDS011;11284;48.086;-1.652;2023-09-19T00:27:39;6.18;;;1.80;;
22230;SDS011;11284;48.086;-1.652;2023-09-19T00:30:08;7.57;;;1.58;;
22230;SDS011;11284;48.086;-1.652;2023-09-19T00:32:44;5.50;;;1.50;;
22230;SDS011;11284;48.086;-1.652;2023-09-19T00:35:12;6.00;;;1.67;;
22230;SDS011;11284;48.086;-1.652;2023-09-19T00:37:40;7.47;;;1.50;;
22230;SDS011;11284;48.086;-1.652;2023-09-19T00:40:07;5.40;;;1.33;;
22230;SDS011;11284;48.086;-1.652;2023-09-19T00:42:37;6.82;;;1.70;;
22230;SDS011;11284;48.086;-1.652;2023-09-19T00:45:03;6.22;;;1.70;;
22230;SDS011;11284;48.086;-1.652;2023-09-19T00:47:30;7.63;;;1.83;;
22230;SDS011;11284;48.086;-1.652;2023-09-19T00:49:56;6.25;;;1.70;;
22230;SDS011;11284;48.086;-1.652;2023-09-19T00:52:23;6.40;;;1.67;;
22230;SDS011;11284;48.086;-1.652;2023-09-19T00:54:49;13.00;;;2.38;;
22230;SDS011;11284;48.086;-1.652;2023-09-19T00:57:15;5.00;;;1.35;;
22230;SDS011;11284;48.086;-1.652;2023-09-19T00:59:42;8.43;;;1.60;;
22230;SDS011;11284;48.086;-1.652;2023-09-19T01:02:08;8.15;;;1.88;;
22230;SDS011;11284;48.086;-1.652;2023-09-19T01:04:35;5.22;;;1.63;;
22230;SDS011;11284;48.086;-1.652;2023-09-19T01:07:02;7.85;;;2.38;;
22230;SDS011;11284;48.086;-1.652;2023-09-19T01:09:28;10.00;;;2.85;;
22230;SDS011;11284;48.086;-1.652;2023-09-19T01:11:56;5.60;;;1.70;;
22230;SDS011;11284;48.086;-1.652;2023-09-19T01:14:31;6.00;;;1.60;;
22230;SDS011;11284;48.086;-1.652;2023-09-19T01:19:33;9.65;;;1.80;;
22230;SDS011;11284;48.086;-1.652;2023-09-19T01:30:14;7.07;;;1.30;;
22230;SDS011;11284;48.086;-1.652;2023-09-19T01:32:40;7.93;;;1.70;;
22230;SDS011;11284;48.086;-1.652;2023-09-19T01:35:08;8.93;;;1.38;;
22230;SDS011;11284;48.086;-1.652;2023-09-19T01:37:37;10.15;;;2.13;;
22230;SDS011;11284;48.086;-1.652;2023-09-19T01:40:04;7.07;;;1.60;;
22230;SDS011;11284;48.086;-1.652;2023-09-19T01:42:55;6.80;;;1.65;;
22230;SDS011;11284;48.086;-1.652;2023-09-19T01:50:50;9.10;;;1.88;;
22230;SDS011;11284;48.086;-1.652;2023-09-19T01:53:25;9.05;;;2.22;;
22230;SDS011;11284;48.086;-1.652;2023-09-19T01:55:55;9.65;;;2.15;;
22230;SDS011;11284;48.086;-1.652;2023-09-19T01:58:37;7.95;;;1.83;;
22230;SDS011;11284;48.086;-1.652;2023-09-19T02:01:05;10.13;;;2.27;;
22230;SDS011;11284;48.086;-1.652;2023-09-19T02:03:34;6.22;;;1.67;;
22230;SDS011;11284;48.086;-1.652;2023-09-19T02:06:00;10.18;;;1.98;;
22230;SDS011;11284;48.086;-1.652;2023-09-19T02:08:28;9.07;;;1.52;;
22230;SDS011;11284;48.086;-1.652;2023-09-19T02:10:56;9.88;;;2.03;;
22230;SDS011;11284;48.086;-1.652;2023-09-19T02:13:22;8.30;;;1.77;;
22230;SDS011;11284;48.086;-1.652;2023-09-19T02:15:53;8.90;;;1.83;;
22230;SDS011;11284;48.086;-1.652;2023-09-19T02:18:19;9.85;;;2.03;;
22230;SDS011;11284;48.086;-1.652;2023-09-19T02:20:45;10.70;;;2.28;;
22230;SDS011;11284;48.086;-1.652;2023-09-19T02:23:11;8.63;;;1.77;;
22230;SDS011;11284;48.086;-1.652;2023-09-19T02:25:37;12.55;;;2.40;;
22230;SDS011;11284;48.086;-1.652;2023-09-19T02:28:05;8.68;;;2.03;;
22230;SDS011;11284;48.086;-1.652;2023-09-19T02:30:31;9.27;;;1.88;;
22230;SDS011;11284;48.086;-1.652;2023-09-19T02:32:58;10.07;;;1.90;;
22230;SDS011;11284;48.086;-1.652;2023-09-19T02:35:27;7.35;;;1.60;;
22230;SDS011;11284;48.086;-1.652;2023-09-19T02:37:53;10.38;;;2.50;;
22230;SDS011;11284;48.086;-1.652;2023-09-19T02:40:19;9.73;;;2.08;;
22230;SDS011;11284;48.086;-1.652;2023-09-19T02:42:52;12.88;;;2.80;;
22230;SDS011;11284;48.086;-1.652;2023-09-19T02:45:18;9.07;;;2.00;;
22230;SDS011;11284;48.086;-1.652;2023-09-19T02:47:45;8.20;;;2.00;;
22230;SDS011;11284;48.086;-1.652;2023-09-19T02:50:11;10.07;;;2.00;;
22230;SDS011;11284;48.086;-1.652;2023-09-19T02:52:38;10.68;;;2.13;;
22230;SDS011;11284;48.086;-1.652;2023-09-19T02:55:08;10.32;;;2.33;;
22230;SDS011;11284;48.086;-1.652;2023-09-19T02:57:35;10.65;;;2.30;;
22230;SDS011;11284;48.086;-1.652;2023-09-19T03:00:01;12.50;;;2.72;;
22230;SDS011;11284;48.086;-1.652;2023-09-19T03:02:27;8.30;;;1.70;;
22230;SDS011;11284;48.086;-1.652;2023-09-19T03:04:57;8.73;;;2.03;;
22230;SDS011;11284;48.086;-1.652;2023-09-19T03:07:25;9.23;;;2.35;;
22230;SDS011;11284;48.086;-1.652;2023-09-19T03:09:51;12.27;;;2.53;;
22230;SDS011;11284;48.086;-1.652;2023-09-19T03:12:18;9.10;;;1.98;;
22230;SDS011;11284;48.086;-1.652;2023-09-19T03:14:44;9.27;;;2.22;;
22230;SDS011;11284;48.086;-1.652;2023-09-19T03:17:10;6.07;;;1.85;;
22230;SDS011;11284;48.086;-1.652;2023-09-19T03:19:39;8.13;;;1.83;;
22230;SDS011;11284;48.086;-1.652;2023-09-19T03:22:05;9.43;;;1.88;;
22230;SDS011;11284;48.086;-1.652;2023-09-19T03:24:31;9.13;;;1.85;;
22230;SDS011;11284;48.086;-1.652;2023-09-19T03:27:00;9.55;;;2.03;;
22230;SDS011;11284;48.086;-1.652;2023-09-19T03:29:26;9.77;;;1.90;;
22230;SDS011;11284;48.086;-1.652;2023-09-19T03:31:52;7.82;;;1.73;;
22230;SDS011;11284;48.086;-1.652;2023-09-19T03:34:19;8.27;;;1.90;;
22230;SDS011;11284;48.086;-1.652;2023-09-19T03:36:45;10.10;;;2.35;;
22230;SDS011;11284;48.086;-1.652;2023-09-19T03:39:11;10.65;;;2.25;;
22230;SDS011;11284;48.086;-1.652;2023-09-19T03:41:39;9.27;;;1.85;;
22230;SDS011;11284;48.086;-1.652;2023-09-19T03:44:05;7.88;;;2.08;;
22230;SDS011;11284;48.086;-1.652;2023-09-19T03:46:32;11.13;;;2.28;;
22230;SDS011;11284;48.086;-1.652;2023-09-19T03:49:00;7.90;;;1.98;;
22230;SDS011;11284;48.086;-1.652;2023-09-19T03:51:26;10.70;;;2.33;;
22230;SDS011;11284;48.086;-1.652;2023-09-19T03:53:52;9.95;;;2.47;;
22230;SDS011;11284;48.086;-1.652;2023-09-19T03:56:18;9.55;;;2.10;;
22230;SDS011;11284;48.086;-1.652;2023-09-19T03:58:44;8.32;;;1.80;;
22230;SDS011;11284;48.086;-1.652;2023-09-19T04:01:10;10.68;;;2.33;;
22230;SDS011;11284;48.086;-1.652;2023-09-19T04:03:38;7.05;;;1.67;;
22230;SDS011;11284;48.086;-1.652;2023-09-19T04:06:13;11.52;;;2.00;;
22230;SDS011;11284;48.086;-1.652;2023-09-19T04:08:39;10.20;;;1.90;;
22230;SDS011;11284;48.086;-1.652;2023-09-19T04:11:05;10.35;;;2.00;;
22230;SDS011;11284;48.086;-1.652;2023-09-19T04:13:31;6.78;;;1.70;;
22230;SDS011;11284;48.086;-1.652;2023-09-19T04:15:57;8.38;;;1.95;;
22230;SDS011;11284;48.086;-1.652;2023-09-19T04:18:23;7.85;;;2.08;;
22230;SDS011;11284;48.086;-1.652;2023-09-19T04:20:50;8.82;;;2.42;;
22230;SDS011;11284;48.086;-1.652;2023-09-19T04:23:16;10.65;;;1.95;;
22230;SDS011;11284;48.086;-1.652;2023-09-19T04:25:45;9.40;;;2.13;;
22230;SDS011;11284;48.086;-1.652;2023-09-19T04:28:11;9.88;;;2.30;;
22230;SDS011;11284;48.086;-1.652;2023-09-19T04:30:37;8.32;;;2.17;;
22230;SDS011;11284;48.086;-1.652;2023-09-19T04:33:06;9.52;;;1.98;;
22230;SDS011;11284;48.086;-1.652;2023-09-19T04:35:32;8.75;;;2.15;;
22230;SDS011;11284;48.086;-1.652;2023-09-19T04:37:59;9.30;;;2.13;;
22230;SDS011;11284;48.086;-1.652;2023-09-19T04:40:25;9.10;;;1.70;;
22230;SDS011;11284;48.086;-1.652;2023-09-19T04:42:58;11.43;;;2.10;;
22230;SDS011;11284;48.086;-1.652;2023-09-19T04:45:25;9.77;;;2.15;;
22230;SDS011;11284;48.086;-1.652;2023-09-19T04:47:51;7.63;;;2.13;;
22230;SDS011;11284;48.086;-1.652;2023-09-19T04:50:18;8.55;;;2.20;;
22230;SDS011;11284;48.086;-1.652;2023-09-19T04:52:44;12.77;;;2.05;;
22230;SDS011;11284;48.086;-1.652;2023-09-19T04:55:13;12.70;;;2.67;;
22230;SDS011;11284;48.086;-1.652;2023-09-19T04:57:43;9.10;;;2.15;;
22230;SDS011;11284;48.086;-1.652;2023-09-19T05:00:10;9.05;;;1.83;;
22230;SDS011;11284;48.086;-1.652;2023-09-19T05:02:38;9.75;;;2.25;;
22230;SDS011;11284;48.086;-1.652;2023-09-19T05:05:05;9.75;;;2.22;;
22230;SDS011;11284;48.086;-1.652;2023-09-19T05:07:32;11.80;;;2.65;;
22230;SDS011;11284;48.086;-1.652;2023-09-19T05:09:59;7.30;;;1.98;;
22230;SDS011;11284;48.086;-1.652;2023-09-19T05:12:26;7.85;;;2.00;;
22230;SDS011;11284;48.086;-1.652;2023-09-19T05:14:52;11.18;;;2.30;;
22230;SDS011;11284;48.086;-1.652;2023-09-19T05:17:18;8.82;;;2.47;;
22230;SDS011;11284;48.086;-1.652;2023-09-19T05:19:44;12.95;;;2.70;;
22230;SDS011;11284;48.086;-1.652;2023-09-19T05:22:11;12.93;;;2.42;;
22230;SDS011;11284;48.086;-1.652;2023-09-19T05:24:37;7.90;;;2.20;;
22230;SDS011;11284;48.086;-1.652;2023-09-19T05:27:04;9.43;;;2.10;;
22230;SDS011;11284;48.086;-1.652;2023-09-19T05:29:32;7.45;;;1.85;;
22230;SDS011;11284;48.086;-1.652;2023-09-19T05:31:58;14.52;;;2.30;;
22230;SDS011;11284;48.086;-1.652;2023-09-19T05:34:24;10.30;;;2.30;;
22230;SDS011;11284;48.086;-1.652;2023-09-19T05:36:55;8.95;;;2.20;;
22230;SDS011;11284;48.086;-1.652;2023-09-19T05:39:21;9.90;;;2.60;;
22230;SDS011;11284;48.086;-1.652;2023-09-19T05:41:47;10.15;;;2.40;;
22230;SDS011;11284;48.086;-1.652;2023-09-19T05:44:13;12.80;;;2.55;;
22230;SDS011;11284;48.086;-1.652;2023-09-19T05:46:39;10.48;;;2.00;;
22230;SDS011;11284;48.086;-1.652;2023-09-19T05:49:05;8.52;;;2.00;;
22230;SDS011;11284;48.086;-1.652;2023-09-19T05:51:31;11.07;;;2.88;;
22230;SDS011;11284;48.086;-1.652;2023-09-19T05:53:58;8.90;;;1.98;;
22230;SDS011;11284;48.086;-1.652;2023-09-19T05:56:24;10.75;;;2.13;;
22230;SDS011;11284;48.086;-1.652;2023-09-19T05:58:50;11.63;;;2.45;;
22230;SDS011;11284;48.086;-1.652;2023-09-19T06:01:18;9.23;;;2.15;;
22230;SDS011;11284;48.086;-1.652;2023-09-19T06:03:44;10.43;;;2.50;;
22230;SDS011;11284;48.086;-1.652;2023-09-19T06:06:10;6.55;;;2.10;;
22230;SDS011;11284;48.086;-1.652;2023-09-19T06:08:36;10.70;;;2.65;;
22230;SDS011;11284;48.086;-1.652;2023-09-19T06:11:02;7.80;;;2.33;;
22230;SDS011;11284;48.086;-1.652;2023-09-19T06:13:30;9.23;;;2.28;;
22230;SDS011;11284;48.086;-1.652;2023-09-19T06:15:58;13.70;;;3.25;;
22230;SDS011;11284;48.086;-1.652;2023-09-19T06:18:29;8.77;;;2.17;;
22230;SDS011;11284;48.086;-1.652;2023-09-19T06:20:58;11.85;;;2.42;;
22230;SDS011;11284;48.086;-1.652;2023-09-19T06:23:24;10.85;;;2.97;;
22230;SDS011;11284;48.086;-1.652;2023-09-19T06:25:52;13.40;;;2.85;;
22230;SDS011;11284;48.086;-1.652;2023-09-19T06:28:21;11.48;;;2.63;;
22230;SDS011;11284;48.086;-1.652;2023-09-19T06:30:50;10.38;;;2.13;;
22230;SDS011;11284;48.086;-1.652;2023-09-19T06:33:17;11.02;;;2.40;;
22230;SDS011;11284;48.086;-1.652;2023-09-19T06:35:45;10.82;;;2.83;;
22230;SDS011;11284;48.086;-1.652;2023-09-19T06:38:12;9.32;;;2.30;;
22230;SDS011;11284;48.086;-1.652;2023-09-19T06:40:40;11.82;;;2.70;;
22230;SDS011;11284;48.086;-1.652;2023-09-19T06:43:09;10.80;;;2.67;;
22230;SDS011;11284;48.086;-1.652;2023-09-19T06:45:36;10.95;;;2.30;;
22230;SDS011;11284;48.086;-1.652;2023-09-19T06:48:02;13.65;;;3.15;;
22230;SDS011;11284;48.086;-1.652;2023-09-19T06:50:28;9.85;;;1.95;;
22230;SDS011;11284;48.086;-1.652;2023-09-19T06:52:55;12.02;;;2.65;;
22230;SDS011;11284;48.086;-1.652;2023-09-19T06:55:24;9.00;;;2.75;;
22230;SDS011;11284;48.086;-1.652;2023-09-19T06:57:52;11.55;;;2.58;;
22230;SDS011;11284;48.086;-1.652;2023-09-19T07:00:21;10.48;;;2.88;;
22230;SDS011;11284;48.086;-1.652;2023-09-19T07:03:01;9.70;;;2.03;;
22230;SDS011;11284;48.086;-1.652;2023-09-19T07:05:29;7.78;;;2.70;;
22230;SDS011;11284;48.086;-1.652;2023-09-19T07:07:56;9.75;;;2.30;;
22230;SDS011;11284;48.086;-1.652;2023-09-19T07:10:26;10.25;;;2.20;;
22230;SDS011;11284;48.086;-1.652;2023-09-19T07:12:59;11.20;;;3.20;;
22230;SDS011;11284;48.086;-1.652;2023-09-19T07:15:25;13.95;;;2.58;;
22230;SDS011;11284;48.086;-1.652;2023-09-19T07:17:52;10.85;;;2.42;;
22230;SDS011;11284;48.086;-1.652;2023-09-19T07:20:22;8.52;;;2.15;;
22230;SDS011;11284;48.086;-1.652;2023-09-19T07:22:51;12.43;;;2.63;;
22230;SDS011;11284;48.086;-1.652;2023-09-19T07:25:17;10.52;;;2.30;;
22230;SDS011;11284;48.086;-1.652;2023-09-19T07:27:43;8.85;;;2.35;;
22230;SDS011;11284;48.086;-1.652;2023-09-19T07:30:10;9.88;;;2.47;;
22230;SDS011;11284;48.086;-1.652;2023-09-19T07:32:36;11.77;;;2.53;;
22230;SDS011;11284;48.086;-1.652;2023-09-19T07:35:03;8.45;;;2.20;;
22230;SDS011;11284;48.086;-1.652;2023-09-19T07:37:30;8.63;;;2.10;;
22230;SDS011;11284;48.086;-1.652;2023-09-19T07:39:58;12.30;;;2.50;;
22230;SDS011;11284;48.086;-1.652;2023-09-19T07:42:24;10.68;;;2.40;;
22230;SDS011;11284;48.086;-1.652;2023-09-19T07:44:50;10.48;;;2.85;;
22230;SDS011;11284;48.086;-1.652;2023-09-19T07:47:18;13.27;;;2.60;;
22230;SDS011;11284;48.086;-1.652;2023-09-19T07:49:46;10.55;;;2.30;;
22230;SDS011;11284;48.086;-1.652;2023-09-19T07:52:12;10.23;;;2.10;;
22230;SDS011;11284;48.086;-1.652;2023-09-19T07:54:39;9.63;;;2.08;;
22230;SDS011;11284;48.086;-1.652;2023-09-19T07:57:06;7.68;;;2.10;;
22230;SDS011;11284;48.086;-1.652;2023-09-19T07:59:32;12.82;;;2.60;;
22230;SDS011;11284;48.086;-1.652;2023-09-19T08:01:58;9.18;;;2.25;;
22230;SDS011;11284;48.086;-1.652;2023-09-19T08:04:25;8.30;;;2.20;;
22230;SDS011;11284;48.086;-1.652;2023-09-19T08:06:51;13.23;;;2.28;;
22230;SDS011;11284;48.086;-1.652;2023-09-19T08:09:17;9.88;;;2.05;;
22230;SDS011;11284;48.086;-1.652;2023-09-19T08:11:46;9.52;;;2.42;;
22230;SDS011;11284;48.086;-1.652;2023-09-19T08:14:13;10.73;;;2.20;;
22230;SDS011;11284;48.086;-1.652;2023-09-19T08:16:39;16.33;;;2.45;;
22230;SDS011;11284;48.086;-1.652;2023-09-19T08:19:07;7.63;;;2.30;;
22230;SDS011;11284;48.086;-1.652;2023-09-19T08:21:33;10.15;;;2.15;;
22230;SDS011;11284;48.086;-1.652;2023-09-19T08:23:59;13.40;;;2.58;;
22230;SDS011;11284;48.086;-1.652;2023-09-19T08:26:26;10.43;;;2.28;;
22230;SDS011;11284;48.086;-1.652;2023-09-19T08:28:53;8.07;;;2.00;;
22230;SDS011;11284;48.086;-1.652;2023-09-19T08:31:20;10.90;;;2.47;;
22230;SDS011;11284;48.086;-1.652;2023-09-19T08:33:47;9.77;;;2.10;;
22230;SDS011;11284;48.086;-1.652;2023-09-19T08:36:14;11.10;;;2.38;;
22230;SDS011;11284;48.086;-1.652;2023-09-19T08:38:40;7.55;;;1.88;;
22230;SDS011;11284;48.086;-1.652;2023-09-19T08:41:07;9.10;;;2.20;;
22230;SDS011;11284;48.086;-1.652;2023-09-19T08:43:33;9.75;;;2.33;;
22230;SDS011;11284;48.086;-1.652;2023-09-19T08:48:32;7.72;;;2.00;;
22230;SDS011;11284;48.086;-1.652;2023-09-19T08:51:10;9.27;;;2.20;;
22230;SDS011;11284;48.086;-1.652;2023-09-19T08:53:58;8.38;;;1.90;;
22230;SDS011;11284;48.086;-1.652;2023-09-19T08:56:26;10.40;;;1.90;;
22230;SDS011;11284;48.086;-1.652;2023-09-19T08:59:04;11.85;;;2.80;;
22230;SDS011;11284;48.086;-1.652;2023-09-19T09:01:33;8.98;;;2.30;;
22230;SDS011;11284;48.086;-1.652;2023-09-19T09:03:59;10.93;;;2.10;;
22230;SDS011;11284;48.086;-1.652;2023-09-19T09:06:26;12.55;;;2.45;;
22230;SDS011;11284;48.086;-1.652;2023-09-19T09:08:57;11.80;;;2.15;;
22230;SDS011;11284;48.086;-1.652;2023-09-19T09:11:23;9.35;;;2.22;;
22230;SDS011;11284;48.086;-1.652;2023-09-19T09:13:49;10.82;;;2.30;;
22230;SDS011;11284;48.086;-1.652;2023-09-19T09:16:15;9.68;;;2.25;;
22230;SDS011;11284;48.086;-1.652;2023-09-19T09:18:45;7.15;;;2.22;;
22230;SDS011;11284;48.086;-1.652;2023-09-19T09:21:12;12.00;;;2.42;;
22230;SDS011;11284;48.086;-1.652;2023-09-19T09:23:40;9.27;;;2.28;;
22230;SDS011;11284;48.086;-1.652;2023-09-19T09:26:06;11.82;;;2.20;;
22230;SDS011;11284;48.086;-1.652;2023-09-19T09:28:34;11.82;;;2.40;;
22230;SDS011;11284;48.086;-1.652;2023-09-19T09:31:04;13.57;;;2.70;;
22230;SDS011;11284;48.086;-1.652;2023-09-19T09:33:34;10.75;;;2.33;;
22230;SDS011;11284;48.086;-1.652;2023-09-19T09:36:02;13.55;;;2.47;;
22230;SDS011;11284;48.086;-1.652;2023-09-19T09:38:30;11.50;;;2.50;;
22230;SDS011;11284;48.086;-1.652;2023-09-19T09:41:09;11.05;;;2.85;;
22230;SDS011;11284;48.086;-1.652;2023-09-19T09:43:37;12.60;;;3.00;;
22230;SDS011;11284;48.086;-1.652;2023-09-19T09:48:46;8.23;;;2.25;;
22230;SDS011;11284;48.086;-1.652;2023-09-19T09:51:32;12.32;;;2.60;;
22230;SDS011;11284;48.086;-1.652;2023-09-19T09:56:56;16.98;;;2.80;;
22230;SDS011;11284;48.086;-1.652;2023-09-19T10:02:26;10.73;;;2.40;;
22230;SDS011;11284;48.086;-1.652;2023-09-19T10:05:03;10.60;;;2.70;;
22230;SDS011;11284;48.086;-1.652;2023-09-19T10:07:51;12.65;;;3.08;;
22230;SDS011;11284;48.086;-1.652;2023-09-19T10:10:34;12.07;;;2.75;;
22230;SDS011;11284;48.086;-1.652;2023-09-19T10:13:19;15.30;;;3.17;;
22230;SDS011;11284;48.086;-1.652;2023-09-19T10:15:51;10.93;;;2.85;;
22230;SDS011;11284;48.086;-1.652;2023-09-19T10:18:20;15.43;;;3.83;;
22230;SDS011;11284;48.086;-1.652;2023-09-19T10:20:47;15.45;;;5.60;;
22230;SDS011;11284;48.086;-1.652;2023-09-19T10:23:19;10.77;;;3.08;;
22230;SDS011;11284;48.086;-1.652;2023-09-19T10:25:48;11.50;;;3.58;;
22230;SDS011;11284;48.086;-1.652;2023-09-19T10:28:15;7.93;;;2.90;;
22230;SDS011;11284;48.086;-1.652;2023-09-19T10:30:45;11.88;;;2.92;;
22230;SDS011;11284;48.086;-1.652;2023-09-19T10:33:12;9.02;;;2.33;;
22230;SDS011;11284;48.086;-1.652;2023-09-19T10:35:41;10.30;;;2.60;;
22230;SDS011;11284;48.086;-1.652;2023-09-19T10:38:07;10.15;;;2.72;;
22230;SDS011;11284;48.086;-1.652;2023-09-19T10:40:35;8.75;;;2.13;;
22230;SDS011;11284;48.086;-1.652;2023-09-19T10:43:05;13.30;;;2.78;;
22230;SDS011;11284;48.086;-1.652;2023-09-19T10:45:33;8.70;;;1.95;;
22230;SDS011;11284;48.086;-1.652;2023-09-19T10:48:02;11.30;;;3.08;;
22230;SDS011;11284;48.086;-1.652;2023-09-19T10:50:33;9.70;;;2.15;;
22230;SDS011;11284;48.086;-1.652;2023-09-19T10:53:00;10.77;;;2.70;;
22230;SDS011;11284;48.086;-1.652;2023-09-19T10:55:30;8.05;;;2.50;;
22230;SDS011;11284;48.086;-1.652;2023-09-19T10:57:56;12.60;;;2.65;;
22230;SDS011;11284;48.086;-1.652;2023-09-19T11:00:52;8.32;;;2.28;;
22230;SDS011;11284;48.086;-1.652;2023-09-19T11:03:19;10.40;;;2.20;;
22230;SDS011;11284;48.086;-1.652;2023-09-19T11:06:03;10.52;;;2.92;;
22230;SDS011;11284;48.086;-1.652;2023-09-19T11:22:22;9.95;;;2.30;;
22230;SDS011;11284;48.086;-1.652;2023-09-19T11:24:47;13.88;;;2.80;;
22230;SDS011;11284;48.086;-1.652;2023-09-19T11:27:16;10.57;;;2.85;;
22230;SDS011;11284;48.086;-1.652;2023-09-19T11:29:43;10.18;;;2.10;;
22230;SDS011;11284;48.086;-1.652;2023-09-19T11:32:09;8.52;;;2.40;;
22230;SDS011;11284;48.086;-1.652;2023-09-19T11:42:44;10.60;;;3.10;;
22230;SDS011;11284;48.086;-1.652;2023-09-19T11:47:55;9.18;;;2.55;;
22230;SDS011;11284;48.086;-1.652;2023-09-19T11:50:23;8.48;;;2.40;;
22230;SDS011;11284;48.086;-1.652;2023-09-19T11:52:50;5.93;;;2.03;;
22230;SDS011;11284;48.086;-1.652;2023-09-19T11:55:17;7.90;;;2.28;;
22230;SDS011;11284;48.086;-1.652;2023-09-19T11:57:47;9.73;;;2.67;;
22230;SDS011;11284;48.086;-1.652;2023-09-19T12:00:18;10.32;;;2.38;;
22230;SDS011;11284;48.086;-1.652;2023-09-19T12:02:46;14.20;;;2.38;;
22230;SDS011;11284;48.086;-1.652;2023-09-19T12:05:13;8.50;;;2.40;;
22230;SDS011;11284;48.086;-1.652;2023-09-19T12:07:43;10.85;;;2.58;;
22230;SDS011;11284;48.086;-1.652;2023-09-19T12:10:11;8.35;;;2.38;;
22230;SDS011;11284;48.086;-1.652;2023-09-19T12:12:39;10.52;;;2.88;;
22230;SDS011;11284;48.086;-1.652;2023-09-19T12:15:07;10.13;;;2.70;;
22230;SDS011;11284;48.086;-1.652;2023-09-19T12:17:36;11.68;;;2.92;;
22230;SDS011;11284;48.086;-1.652;2023-09-19T12:20:04;9.75;;;2.53;;
22230;SDS011;11284;48.086;-1.652;2023-09-19T12:22:44;11.05;;;2.65;;
22230;SDS011;11284;48.086;-1.652;2023-09-19T12:25:11;10.18;;;2.95;;
22230;SDS011;11284;48.086;-1.652;2023-09-19T12:30:11;9.05;;;2.75;;
22230;SDS011;11284;48.086;-1.652;2023-09-19T12:32:39;9.15;;;2.60;;
22230;SDS011;11284;48.086;-1.652;2023-09-19T12:35:06;10.10;;;2.65;;
22230;SDS011;11284;48.086;-1.652;2023-09-19T12:37:44;10.07;;;2.60;;
22230;SDS011;11284;48.086;-1.652;2023-09-19T12:40:17;11.18;;;2.70;;
22230;SDS011;11284;48.086;-1.652;2023-09-19T12:42:52;12.38;;;2.72;;
22230;SDS011;11284;48.086;-1.652;2023-09-19T12:45:20;11.07;;;2.85;;
22230;SDS011;11284;48.086;-1.652;2023-09-19T12:50:33;11.43;;;2.88;;
22230;SDS011;11284;48.086;-1.652;2023-09-19T12:52:59;9.75;;;2.42;;
22230;SDS011;11284;48.086;-1.652;2023-09-19T12:55:26;11.55;;;2.88;;
22230;SDS011;11284;48.086;-1.652;2023-09-19T12:57:56;10.55;;;2.53;;
22230;SDS011;11284;48.086;-1.652;2023-09-19T13:00:31;8.23;;;2.40;;
22230;SDS011;11284;48.086;-1.652;2023-09-19T13:05:59;12.52;;;2.60;;
22230;SDS011;11284;48.086;-1.652;2023-09-19T13:08:28;9.95;;;3.08;;
22230;SDS011;11284;48.086;-1.652;2023-09-19T13:11:07;8.15;;;2.67;;
22230;SDS011;11284;48.086;-1.652;2023-09-19T13:13:38;10.00;;;2.50;;
22230;SDS011;11284;48.086;-1.652;2023-09-19T13:16:04;8.23;;;3.00;;
22230;SDS011;11284;48.086;-1.652;2023-09-19T13:18:47;8.95;;;3.10;;
22230;SDS011;11284;48.086;-1.652;2023-09-19T13:21:15;12.07;;;3.17;;
22230;SDS011;11284;48.086;-1.652;2023-09-19T13:23:52;13.00;;;2.95;;
22230;SDS011;11284;48.086;-1.652;2023-09-19T13:26:19;8.63;;;2.65;;
22230;SDS011;11284;48.086;-1.652;2023-09-19T13:28:45;12.35;;;3.20;;
22230;SDS011;11284;48.086;-1.652;2023-09-19T13:31:14;13.15;;;3.05;;
22230;SDS011;11284;48.086;-1.652;2023-09-19T13:33:47;11.07;;;3.05;;
22230;SDS011;11284;48.086;-1.652;2023-09-19T13:36:13;11.48;;;3.10;;
22230;SDS011;11284;48.086;-1.652;2023-09-19T13:38:40;8.90;;;3.15;;
22230;SDS011;11284;48.086;-1.652;2023-09-19T13:41:08;11.18;;;3.50;;
22230;SDS011;11284;48.086;-1.652;2023-09-19T13:43:35;11.98;;;3.20;;
22230;SDS011;11284;48.086;-1.652;2023-09-19T13:46:01;12.57;;;3.25;;
22230;SDS011;11284;48.086;-1.652;2023-09-19T13:48:27;11.48;;;3.33;;
22230;SDS011;11284;48.086;-1.652;2023-09-19T13:50:55;12.48;;;3.10;;
22230;SDS011;11284;48.086;-1.652;2023-09-19T13:53:21;12.98;;;3.78;;
22230;SDS011;11284;48.086;-1.652;2023-09-19T13:55:47;11.30;;;3.50;;
22230;SDS011;11284;48.086;-1.652;2023-09-19T13:58:16;10.57;;;3.00;;
22230;SDS011;11284;48.086;-1.652;2023-09-19T14:00:42;11.13;;;2.92;;
22230;SDS011;11284;48.086;-1.652;2023-09-19T14:03:08;10.50;;;3.28;;
22230;SDS011;11284;48.086;-1.652;2023-09-19T14:05:35;9.70;;;3.10;;
22230;SDS011;11284;48.086;-1.652;2023-09-19T14:08:02;12.20;;;3.53;;
22230;SDS011;11284;48.086;-1.652;2023-09-19T14:10:28;12.10;;;3.60;;
22230;SDS011;11284;48.086;-1.652;2023-09-19T14:12:56;8.77;;;3.17;;
22230;SDS011;11284;48.086;-1.652;2023-09-19T14:15:25;9.68;;;3.38;;
22230;SDS011;11284;48.086;-1.652;2023-09-19T14:17:58;15.13;;;3.75;;
22230;SDS011;11284;48.086;-1.652;2023-09-19T14:20:25;7.63;;;3.50;;
22230;SDS011;11284;48.086;-1.652;2023-09-19T14:22:52;11.68;;;3.63;;
22230;SDS011;11284;48.086;-1.652;2023-09-19T14:25:18;10.55;;;3.20;;
22230;SDS011;11284;48.086;-1.652;2023-09-19T14:27:46;10.52;;;3.67;;
22230;SDS011;11284;48.086;-1.652;2023-09-19T14:30:12;9.75;;;3.55;;
22230;SDS011;11284;48.086;-1.652;2023-09-19T14:32:38;10.93;;;3.72;;
22230;SDS011;11284;48.086;-1.652;2023-09-19T14:35:05;10.57;;;3.55;;
22230;SDS011;11284;48.086;-1.652;2023-09-19T14:37:31;12.27;;;3.70;;
22230;SDS011;11284;48.086;-1.652;2023-09-19T14:39:57;13.70;;;4.00;;
22230;SDS011;11284;48.086;-1.652;2023-09-19T14:42:23;14.93;;;3.67;;
22230;SDS011;11284;48.086;-1.652;2023-09-19T14:44:49;9.10;;;3.33;;
22230;SDS011;11284;48.086;-1.652;2023-09-19T14:47:15;12.32;;;3.25;;
22230;SDS011;11284;48.086;-1.652;2023-09-19T14:49:42;14.50;;;3.83;;
22230;SDS011;11284;48.086;-1.652;2023-09-19T14:52:09;16.17;;;4.30;;
22230;SDS011;11284;48.086;-1.652;2023-09-19T14:54:35;10.40;;;3.90;;
22230;SDS011;11284;48.086;-1.652;2023-09-19T14:57:06;10.98;;;3.75;;
22230;SDS011;11284;48.086;-1.652;2023-09-19T14:59:34;13.73;;;4.07;;
22230;SDS011;11284;48.086;-1.652;2023-09-19T15:02:03;9.43;;;3.28;;
22230;SDS011;11284;48.086;-1.652;2023-09-19T15:04:29;10.88;;;3.30;;
22230;SDS011;11284;48.086;-1.652;2023-09-19T15:06:56;9.95;;;3.53;;
22230;SDS011;11284;48.086;-1.652;2023-09-19T15:09:22;9.48;;;3.38;;
22230;SDS011;11284;48.086;-1.652;2023-09-19T15:11:50;12.65;;;3.88;;
22230;SDS011;11284;48.086;-1.652;2023-09-19T15:14:17;11.73;;;3.60;;
22230;SDS011;11284;48.086;-1.652;2023-09-19T15:16:43;10.20;;;3.53;;
22230;SDS011;11284;48.086;-1.652;2023-09-19T15:19:09;8.07;;;3.30;;
22230;SDS011;11284;48.086;-1.652;2023-09-19T15:21:35;10.93;;;3.50;;
22230;SDS011;11284;48.086;-1.652;2023-09-19T15:24:02;9.15;;;3.50;;
22230;SDS011;11284;48.086;-1.652;2023-09-19T15:26:28;13.57;;;3.78;;
22230;SDS011;11284;48.086;-1.652;2023-09-19T15:28:55;7.38;;;3.40;;
22230;SDS011;11284;48.086;-1.652;2023-09-19T15:31:21;10.48;;;3.65;;
22230;SDS011;11284;48.086;-1.652;2023-09-19T15:33:47;9.85;;;3.05;;